createdAt,value
2022-11-04T00:00:41.570Z,6.67
2022-11-04T00:03:11.504Z,7.23
2022-11-04T00:05:41.452Z,7.27
2022-11-04T00:08:26.488Z,7.40
2022-11-04T00:11:15.445Z,7.67
2022-11-04T00:13:45.649Z,7.43
2022-11-04T00:16:34.081Z,7.40
2022-11-04T00:19:04.811Z,7.90
2022-11-04T00:21:52.084Z,7.90
2022-11-04T00:24:32.518Z,7.73
2022-11-04T00:27:19.713Z,8.17
2022-11-04T00:29:49.787Z,7.00
2022-11-04T00:32:37.242Z,6.93
2022-11-04T00:35:07.202Z,6.90
2022-11-04T00:37:41.813Z,7.33
2022-11-04T00:40:14.123Z,6.17
2022-11-04T00:42:47.098Z,6.97
2022-11-04T00:45:16.930Z,6.85
2022-11-04T00:47:46.841Z,7.73
2022-11-04T00:50:16.872Z,5.80
2022-11-04T00:52:46.660Z,6.50
2022-11-04T00:55:16.493Z,6.20
2022-11-04T00:57:46.313Z,7.80
2022-11-04T01:00:16.657Z,7.00
2022-11-04T01:02:46.304Z,6.47
2022-11-04T01:05:16.009Z,7.00
2022-11-04T01:07:45.792Z,6.67
2022-11-04T01:10:15.263Z,6.60
2022-11-04T01:12:45.136Z,6.47
2022-11-04T01:15:14.898Z,6.62
2022-11-04T01:17:44.676Z,6.87
2022-11-04T01:20:14.593Z,6.10
2022-11-04T01:22:44.530Z,6.27
2022-11-04T01:25:14.320Z,6.95
2022-11-04T01:27:44.104Z,6.77
2022-11-04T01:30:13.886Z,7.40
2022-11-04T01:32:43.677Z,6.37
2022-11-04T01:35:13.451Z,6.30
2022-11-04T01:37:43.284Z,6.80
2022-11-04T01:40:13.179Z,6.80
2022-11-04T01:42:42.959Z,7.23
2022-11-04T01:45:17.631Z,7.47
2022-11-04T01:48:05.463Z,7.13
2022-11-04T01:50:37.580Z,6.03
2022-11-04T01:53:16.134Z,6.67
2022-11-04T01:55:49.042Z,6.10
2022-11-04T01:58:21.393Z,6.77
2022-11-04T02:00:51.705Z,6.20
2022-11-04T02:03:27.179Z,6.93
2022-11-04T02:05:57.709Z,5.90
2022-11-04T02:08:28.143Z,8.37
2022-11-04T02:11:03.208Z,7.00
2022-11-04T02:13:36.130Z,6.27
2022-11-04T02:16:09.833Z,6.28
2022-11-04T02:18:59.510Z,6.93
2022-11-04T02:21:47.240Z,6.00
2022-11-04T02:24:19.951Z,5.63
2022-11-04T02:27:02.003Z,6.03
2022-11-04T02:29:37.361Z,5.80
2022-11-04T02:32:36.736Z,6.97
2022-11-04T02:35:10.122Z,5.57
2022-11-04T02:38:03.886Z,5.97
2022-11-04T02:41:05.485Z,7.00
2022-11-04T02:46:22.334Z,6.93
2022-11-04T02:48:58.473Z,6.97
2022-11-04T02:51:31.149Z,7.60
2022-11-04T02:54:22.093Z,7.67
2022-11-04T02:56:54.581Z,6.23
2022-11-04T02:59:33.402Z,6.03
2022-11-04T03:02:06.711Z,6.40
2022-11-04T03:04:42.143Z,6.93
2022-11-04T03:07:14.689Z,5.97
2022-11-04T03:09:47.511Z,5.53
2022-11-04T03:12:20.381Z,6.67
2022-11-04T03:14:59.514Z,6.43
2022-11-04T03:17:44.185Z,7.10
2022-11-04T03:20:19.642Z,7.07
2022-11-04T03:22:49.862Z,6.87
2022-11-04T03:25:19.711Z,7.03
2022-11-04T03:28:01.463Z,6.20
2022-11-04T03:30:34.297Z,5.63
2022-11-04T03:33:22.093Z,5.97
2022-11-04T03:35:52.148Z,6.50
2022-11-04T03:38:23.444Z,6.03
2022-11-04T03:40:53.312Z,7.10
2022-11-04T03:43:25.954Z,6.27
2022-11-04T03:45:56.666Z,5.83
2022-11-04T03:48:26.490Z,5.70
2022-11-04T03:50:56.598Z,6.75
2022-11-04T03:53:28.020Z,5.67
2022-11-04T03:56:29.646Z,6.67
2022-11-04T03:59:05.201Z,6.10
2022-11-04T04:01:46.955Z,6.70
2022-11-04T04:04:28.623Z,5.53
2022-11-04T04:07:19.660Z,5.87
2022-11-04T04:09:58.235Z,7.03
2022-11-04T04:12:36.807Z,5.13
2022-11-04T04:15:09.966Z,6.37
2022-11-04T04:17:42.860Z,6.83
2022-11-04T04:20:18.278Z,7.47
2022-11-04T04:22:59.620Z,7.07
2022-11-04T04:25:50.323Z,6.37
2022-11-04T04:28:21.652Z,7.80
2022-11-04T04:30:55.208Z,7.47
2022-11-04T04:33:22.951Z,8.57
2022-11-04T04:35:55.759Z,8.00
2022-11-04T04:38:45.593Z,6.67
2022-11-04T04:41:38.644Z,8.00
2022-11-04T04:44:34.806Z,7.10
2022-11-04T04:47:04.952Z,8.33
2022-11-04T04:49:37.659Z,7.30
2022-11-04T04:52:09.018Z,7.83
2022-11-04T04:54:38.796Z,7.07
2022-11-04T04:57:08.306Z,7.33
2022-11-04T04:59:38.086Z,7.00
2022-11-04T05:02:07.777Z,7.33
2022-11-04T05:04:37.929Z,6.92
2022-11-04T05:07:09.087Z,8.13
2022-11-04T05:09:39.144Z,7.83
2022-11-04T05:12:10.092Z,8.23
2022-11-04T05:14:39.877Z,7.47
2022-11-04T05:17:09.350Z,9.63
2022-11-04T05:19:39.209Z,7.20
2022-11-04T05:22:09.250Z,9.73
2022-11-04T05:24:39.046Z,8.10
2022-11-04T05:27:08.605Z,8.47
2022-11-04T05:29:38.556Z,6.83
2022-11-04T05:32:08.328Z,7.73
2022-11-04T05:34:39.143Z,7.73
2022-11-04T05:37:08.967Z,9.15
2022-11-04T05:39:38.756Z,8.43
2022-11-04T05:42:08.549Z,8.70
2022-11-04T05:44:38.333Z,7.53
2022-11-04T05:47:08.156Z,7.73
2022-11-04T05:49:37.946Z,9.17
2022-11-04T05:52:08.009Z,9.00
2022-11-04T05:54:39.412Z,8.50
2022-11-04T05:57:09.710Z,7.73
2022-11-04T05:59:39.885Z,8.48
2022-11-04T06:02:09.927Z,8.40
2022-11-04T06:04:39.786Z,7.87
2022-11-04T06:07:10.529Z,7.57
2022-11-04T06:09:40.379Z,8.10
2022-11-04T06:12:15.719Z,7.93
2022-11-04T06:14:45.845Z,7.63
2022-11-04T06:17:18.680Z,8.10
2022-11-04T06:19:48.919Z,8.70
2022-11-04T06:22:20.127Z,8.03
2022-11-04T06:24:49.978Z,8.00
2022-11-04T06:27:22.471Z,8.43
2022-11-04T06:29:53.628Z,7.57
2022-11-04T06:32:23.217Z,7.20
2022-11-04T06:34:52.980Z,7.80
2022-11-04T06:37:22.589Z,8.73
2022-11-04T06:39:52.392Z,7.70
2022-11-04T06:42:22.096Z,8.80
2022-11-04T06:44:51.911Z,10.80
2022-11-04T06:47:24.772Z,10.13
2022-11-04T06:49:53.186Z,12.50
2022-11-04T06:52:22.876Z,11.33
2022-11-04T06:54:52.689Z,10.80
2022-11-04T06:57:22.210Z,11.80
2022-11-04T06:59:52.085Z,11.00
2022-11-04T07:02:22.209Z,11.30
2022-11-04T07:04:52.162Z,11.57
2022-11-04T07:07:21.760Z,10.63
2022-11-04T07:09:51.577Z,10.87
2022-11-04T07:12:23.028Z,10.93
2022-11-04T07:14:53.179Z,11.10
2022-11-04T07:17:22.972Z,9.90
2022-11-04T07:19:52.832Z,10.20
2022-11-04T07:22:22.695Z,9.60
2022-11-04T07:24:52.491Z,12.40
2022-11-04T07:27:22.135Z,9.90
2022-11-04T07:29:51.943Z,9.00
2022-11-04T07:32:21.605Z,10.53
2022-11-04T07:34:51.404Z,9.43
2022-11-04T07:37:20.992Z,11.70
2022-11-04T07:39:50.791Z,11.57
2022-11-04T07:42:21.031Z,11.03
2022-11-04T07:44:52.532Z,10.93
2022-11-04T07:47:22.411Z,11.60
2022-11-04T07:49:52.499Z,11.43
2022-11-04T07:52:22.355Z,11.73
2022-11-04T07:54:52.228Z,12.90
2022-11-04T07:57:22.514Z,11.23
2022-11-04T07:59:52.495Z,11.70
2022-11-04T08:02:26.523Z,11.17
2022-11-04T08:04:53.691Z,11.03
2022-11-04T08:07:23.266Z,11.60
2022-11-04T08:09:53.070Z,11.53
2022-11-04T08:12:24.272Z,12.13
2022-11-04T08:14:54.236Z,11.63
2022-11-04T08:17:24.066Z,11.63
2022-11-04T08:19:53.947Z,12.37
2022-11-04T08:22:24.372Z,10.90
2022-11-04T08:24:54.943Z,10.50
2022-11-04T08:27:24.832Z,11.33
2022-11-04T08:29:54.656Z,10.67
2022-11-04T08:32:24.765Z,11.30
2022-11-04T08:34:54.885Z,11.53
2022-11-04T08:37:26.717Z,10.43
2022-11-04T08:39:56.687Z,10.93
2022-11-04T08:42:26.563Z,9.80
2022-11-04T08:45:08.113Z,9.57
2022-11-04T08:47:39.219Z,8.85
2022-11-04T08:50:09.117Z,6.97
2022-11-04T08:52:38.898Z,7.37
2022-11-04T08:55:09.988Z,7.87
2022-11-04T09:00:08.936Z,6.80
2022-11-04T09:02:38.548Z,7.10
2022-11-04T09:05:08.575Z,9.13
2022-11-04T09:07:38.824Z,8.37
2022-11-04T09:10:09.612Z,7.20
2022-11-04T09:12:39.429Z,8.78
2022-11-04T09:15:09.765Z,7.00
2022-11-04T09:17:39.282Z,8.43
2022-11-04T09:20:09.691Z,7.27
2022-11-04T09:22:45.460Z,7.78
2022-11-04T09:25:11.287Z,7.30
2022-11-04T09:27:41.068Z,7.03
2022-11-04T09:30:12.039Z,7.70
2022-11-04T09:32:41.875Z,6.42
2022-11-04T09:35:11.958Z,7.45
2022-11-04T09:37:41.720Z,7.93
2022-11-04T09:40:16.760Z,8.00
2022-11-04T09:43:01.530Z,8.17
2022-11-04T09:45:33.236Z,7.13
2022-11-04T09:50:35.961Z,7.85
2022-11-04T09:53:12.342Z,7.83
2022-11-04T09:55:54.326Z,8.03
2022-11-04T09:58:24.660Z,8.33
2022-11-04T10:01:06.232Z,7.53
2022-11-04T10:06:28.488Z,7.67
2022-11-04T10:09:03.899Z,8.50
2022-11-04T10:11:51.670Z,8.67
2022-11-04T10:14:35.147Z,8.53
2022-11-04T10:17:16.786Z,9.07
2022-11-04T10:19:52.334Z,8.33
2022-11-04T10:22:33.620Z,8.95
2022-11-04T10:25:21.485Z,7.50
2022-11-04T10:27:52.512Z,7.58
2022-11-04T10:30:24.714Z,8.68
2022-11-04T10:33:16.207Z,7.53
2022-11-04T10:38:25.125Z,6.80
2022-11-04T10:40:56.027Z,6.87
2022-11-04T10:43:31.808Z,7.30
2022-11-04T10:46:22.840Z,7.35
2022-11-04T10:49:04.469Z,6.80
2022-11-04T10:51:34.235Z,6.97
2022-11-04T10:54:05.875Z,7.23
2022-11-04T10:56:47.781Z,6.97
2022-11-04T10:59:29.490Z,7.10
2022-11-04T11:02:02.269Z,8.10
2022-11-04T11:04:44.691Z,6.20
2022-11-04T11:07:21.580Z,6.53
2022-11-04T11:09:55.821Z,7.87
2022-11-04T11:12:51.759Z,6.70
2022-11-04T11:17:52.812Z,6.45
2022-11-04T11:20:26.370Z,7.75
2022-11-04T11:25:55.847Z,7.08
2022-11-04T11:28:28.708Z,6.70
2022-11-04T11:31:07.821Z,6.43
2022-11-04T11:36:31.967Z,6.53
2022-11-04T11:39:11.709Z,8.13
2022-11-04T11:42:02.558Z,5.83
2022-11-04T11:44:40.374Z,6.43
2022-11-04T11:50:23.110Z,5.35
2022-11-04T11:52:55.203Z,5.53
2022-11-04T11:55:32.097Z,5.60
2022-11-04T12:01:03.154Z,5.70
2022-11-04T12:09:23.524Z,5.80
2022-11-04T12:12:02.646Z,5.17
2022-11-04T12:14:56.551Z,5.87
2022-11-04T12:17:44.310Z,6.63
2022-11-04T12:20:36.736Z,6.07
2022-11-04T12:23:29.185Z,6.37
2022-11-04T12:26:06.236Z,6.70
2022-11-04T12:28:43.285Z,6.23
2022-11-04T12:31:30.996Z,6.13
2022-11-04T12:34:06.528Z,6.20
2022-11-04T12:36:44.859Z,6.37
2022-11-04T12:39:23.136Z,5.87
2022-11-04T12:42:21.139Z,6.53
2022-11-04T12:44:43.434Z,6.97
2022-11-04T12:47:35.588Z,6.27
2022-11-04T12:50:09.647Z,6.55
2022-11-04T12:52:42.751Z,6.90
2022-11-04T12:55:39.566Z,5.97
2022-11-04T12:58:24.913Z,7.03
2022-11-04T13:00:59.639Z,7.10
2022-11-04T13:03:32.457Z,7.13
2022-11-04T13:06:07.830Z,7.33
2022-11-04T13:08:57.086Z,7.33
2022-11-04T13:11:32.769Z,7.40
2022-11-04T13:14:19.266Z,7.27
2022-11-04T13:16:54.815Z,8.27
2022-11-04T13:19:29.251Z,6.87
2022-11-04T13:22:02.360Z,7.97
2022-11-04T13:24:35.976Z,8.87
2022-11-04T13:27:16.237Z,7.83
2022-11-04T13:29:48.269Z,7.75
2022-11-04T13:32:32.531Z,8.00
2022-11-04T13:35:08.408Z,7.57
2022-11-04T13:37:47.267Z,7.73
2022-11-04T13:40:23.091Z,8.10
2022-11-04T13:43:33.221Z,7.93
2022-11-04T13:46:03.746Z,7.40
2022-11-04T13:48:37.015Z,8.40
2022-11-04T13:51:10.560Z,8.43
2022-11-04T13:53:52.208Z,7.37
2022-11-04T13:56:39.428Z,6.90
2022-11-04T13:59:27.536Z,7.20
2022-11-04T14:02:21.488Z,7.37
2022-11-04T14:04:51.283Z,8.33
2022-11-04T14:07:22.393Z,7.83
2022-11-04T14:09:55.621Z,7.08
2022-11-04T14:12:31.592Z,8.07
2022-11-04T14:15:07.118Z,7.85
2022-11-04T14:17:40.102Z,8.83
2022-11-04T14:20:27.536Z,7.43
2022-11-04T14:23:00.031Z,8.07
2022-11-04T14:25:32.990Z,8.00
2022-11-04T14:28:17.114Z,8.33
2022-11-04T14:30:58.849Z,6.53
2022-11-04T14:33:56.576Z,8.30
2022-11-04T14:36:40.586Z,8.50
2022-11-04T14:39:13.898Z,8.20
2022-11-04T14:41:57.816Z,8.03
2022-11-04T14:44:39.692Z,7.67
2022-11-04T14:47:30.827Z,7.63
2022-11-04T14:52:36.048Z,6.10
2022-11-04T14:55:18.465Z,8.00
2022-11-04T14:57:51.778Z,9.23
2022-11-04T15:00:33.470Z,9.53
2022-11-04T15:03:45.616Z,8.60
2022-11-04T15:06:00.360Z,7.53
2022-11-04T15:08:39.113Z,8.30
2022-11-04T15:11:17.392Z,8.23
2022-11-04T15:13:49.658Z,8.80
2022-11-04T15:16:25.678Z,8.37
2022-11-04T15:18:58.447Z,7.13
2022-11-04T15:21:29.129Z,8.50
2022-11-04T15:23:58.937Z,8.30
2022-11-04T15:26:31.724Z,9.27
2022-11-04T15:29:04.210Z,9.00
2022-11-04T15:31:35.234Z,8.93
2022-11-04T15:34:14.090Z,7.50
2022-11-04T15:36:42.502Z,7.20
2022-11-04T15:39:31.571Z,8.07
2022-11-04T15:42:21.932Z,8.03
2022-11-04T15:44:56.964Z,9.27
2022-11-04T15:47:29.446Z,9.30
2022-11-04T15:50:08.039Z,8.30
2022-11-04T15:52:38.566Z,9.60
2022-11-04T15:55:10.141Z,8.47
2022-11-04T15:57:41.933Z,8.90
2022-11-04T16:00:17.629Z,8.83
2022-11-04T16:02:50.481Z,9.07
2022-11-04T16:05:29.573Z,10.08
2022-11-04T16:08:18.706Z,11.07
2022-11-04T16:10:49.323Z,10.10
2022-11-04T16:13:24.613Z,11.67
2022-11-04T16:16:03.241Z,9.30
2022-11-04T16:18:57.637Z,9.58
2022-11-04T16:21:32.103Z,9.67
2022-11-04T16:24:04.976Z,11.27
2022-11-04T16:26:40.525Z,10.60
2022-11-04T16:29:19.286Z,10.70
2022-11-04T16:32:08.542Z,11.30
2022-11-04T16:34:39.012Z,11.70
2022-11-04T16:37:08.840Z,11.50
2022-11-04T16:39:38.732Z,10.80
2022-11-04T16:42:09.926Z,11.30
2022-11-04T16:44:39.556Z,11.40
2022-11-04T16:47:11.374Z,12.73
2022-11-04T16:49:41.680Z,12.70
2022-11-04T16:52:14.478Z,12.03
2022-11-04T16:54:44.432Z,11.73
2022-11-04T16:57:15.887Z,11.20
2022-11-04T16:59:45.742Z,10.57
2022-11-04T17:02:34.683Z,12.93
2022-11-04T17:05:08.728Z,11.23
2022-11-04T17:07:52.933Z,10.00
2022-11-04T17:10:17.992Z,11.87
2022-11-04T17:12:48.030Z,10.93
2022-11-04T17:15:18.465Z,10.67
2022-11-04T17:17:48.114Z,10.83
2022-11-04T17:20:19.226Z,10.30
2022-11-04T17:22:49.360Z,10.03
2022-11-04T17:25:24.644Z,9.60
2022-11-04T17:27:54.984Z,9.17
2022-11-04T17:30:25.334Z,12.40
2022-11-04T17:32:55.296Z,11.27
2022-11-04T17:35:25.384Z,12.20
2022-11-04T17:37:56.012Z,14.23
2022-11-04T17:40:25.615Z,19.80
2022-11-04T17:43:13.603Z,18.33
2022-11-04T17:45:45.586Z,16.03
2022-11-04T17:48:15.470Z,15.60
2022-11-04T17:50:47.000Z,15.13
2022-11-04T17:53:16.809Z,14.68
2022-11-04T17:55:46.856Z,16.40
2022-11-04T17:58:16.731Z,15.80
2022-11-04T18:00:46.657Z,14.37
2022-11-04T18:03:16.512Z,13.18
2022-11-04T18:05:46.357Z,13.50
2022-11-04T18:08:16.155Z,12.18
2022-11-04T18:10:45.974Z,10.83
2022-11-04T18:13:15.567Z,13.10
2022-11-04T18:15:45.365Z,13.73
2022-11-04T18:18:14.988Z,19.23
2022-11-04T18:20:44.870Z,15.03
2022-11-04T18:23:14.443Z,12.80
2022-11-04T18:25:48.144Z,15.33
2022-11-04T18:28:15.744Z,18.63
2022-11-04T18:30:45.551Z,17.07
2022-11-04T18:33:15.501Z,14.55
2022-11-04T18:35:45.356Z,14.53
2022-11-04T18:38:15.166Z,15.33
2022-11-04T18:40:45.029Z,17.60
2022-11-04T18:43:15.071Z,17.90
2022-11-04T18:45:45.259Z,18.53
2022-11-04T18:48:16.448Z,18.83
2022-11-04T18:50:46.593Z,17.75
2022-11-04T18:53:22.837Z,17.82
2022-11-04T18:55:49.889Z,17.10
2022-11-04T18:58:19.784Z,17.82
2022-11-04T19:00:49.645Z,19.27
2022-11-04T19:03:21.017Z,17.57
2022-11-04T19:05:50.837Z,17.43
2022-11-04T19:08:20.418Z,18.73
2022-11-04T19:11:00.650Z,26.07
2022-11-04T19:13:21.508Z,20.73
2022-11-04T19:15:51.495Z,19.83
2022-11-04T19:18:21.373Z,20.30
2022-11-04T19:20:51.159Z,18.40
2022-11-04T19:23:21.941Z,17.87
2022-11-04T19:25:51.816Z,19.92
2022-11-04T19:28:40.515Z,16.83
2022-11-04T19:31:00.676Z,19.30
2022-11-04T19:33:31.521Z,22.07
2022-11-04T19:38:30.167Z,16.90
2022-11-04T19:41:05.979Z,17.90
2022-11-04T19:43:36.640Z,18.50
2022-11-04T19:46:06.840Z,16.17
2022-11-04T19:48:37.000Z,16.62
2022-11-04T19:51:08.651Z,18.77
2022-11-04T19:53:38.545Z,17.20
2022-11-04T19:56:08.644Z,17.90
2022-11-04T19:58:38.808Z,16.80
2022-11-04T20:01:12.711Z,16.87
2022-11-04T20:03:44.559Z,16.90
2022-11-04T20:06:16.688Z,18.48
2022-11-04T20:08:49.869Z,16.20
2022-11-04T20:11:20.540Z,16.23
2022-11-04T20:13:51.807Z,14.25
2022-11-04T20:16:24.377Z,15.40
2022-11-04T20:18:58.444Z,14.67
2022-11-04T20:21:32.240Z,14.63
2022-11-04T20:24:04.790Z,15.77
2022-11-04T20:26:36.216Z,16.27
2022-11-04T20:29:07.508Z,16.90
2022-11-04T20:31:39.273Z,15.80
2022-11-04T20:34:09.737Z,17.07
2022-11-04T20:36:40.493Z,14.63
2022-11-04T20:39:16.323Z,14.78
2022-11-04T20:41:46.972Z,15.93
2022-11-04T20:44:17.549Z,15.40
2022-11-04T20:46:47.539Z,13.62
2022-11-04T20:49:17.018Z,14.40
2022-11-04T20:51:54.437Z,15.30
2022-11-04T20:54:20.935Z,14.05
2022-11-04T20:56:50.772Z,15.13
2022-11-04T20:59:26.800Z,14.53
2022-11-04T21:02:02.811Z,15.13
2022-11-04T21:04:36.951Z,14.37
2022-11-04T21:07:07.504Z,16.03
2022-11-04T21:09:37.547Z,14.50
2022-11-04T21:12:07.597Z,14.50
2022-11-04T21:14:37.751Z,15.27
2022-11-04T21:17:07.759Z,14.23
2022-11-04T21:19:38.578Z,13.57
2022-11-04T21:22:09.471Z,15.85
2022-11-04T21:24:40.927Z,14.18
2022-11-04T21:27:10.765Z,16.00
2022-11-04T21:29:42.533Z,14.87
2022-11-04T21:32:12.528Z,15.00
2022-11-04T21:34:56.645Z,15.13
2022-11-04T21:37:31.516Z,15.93
2022-11-04T21:40:07.231Z,15.50
2022-11-04T21:42:39.772Z,14.30
2022-11-04T21:48:44.299Z,14.15
2022-11-04T21:54:16.816Z,13.05
2022-11-04T21:57:03.817Z,12.87
2022-11-04T21:59:47.552Z,12.43
2022-11-04T22:05:36.472Z,13.73
2022-11-04T22:08:18.148Z,12.73
2022-11-04T22:14:05.128Z,10.13
2022-11-04T22:19:58.269Z,10.15
2022-11-04T22:45:55.968Z,11.97
2022-11-04T22:48:29.127Z,11.18
2022-11-04T22:53:50.052Z,13.17
2022-11-04T22:56:18.175Z,14.05
2022-11-04T22:58:49.626Z,11.57
2022-11-04T23:01:19.685Z,12.18
2022-11-04T23:03:52.310Z,11.87
2022-11-04T23:06:23.550Z,11.37
2022-11-04T23:08:59.657Z,10.43
2022-11-04T23:11:46.329Z,12.37
2022-11-04T23:14:36.230Z,10.87
2022-11-04T23:17:33.379Z,9.90
2022-11-04T23:20:05.351Z,9.97
2022-11-04T23:22:52.879Z,9.60
2022-11-04T23:25:22.738Z,9.43
2022-11-04T23:28:14.415Z,9.33
2022-11-04T23:30:46.817Z,8.37
2022-11-04T23:33:16.702Z,8.18
2022-11-04T23:36:07.345Z,8.35
2022-11-04T23:38:37.796Z,8.85
2022-11-04T23:41:26.682Z,6.87
2022-11-04T23:43:57.886Z,8.23
2022-11-04T23:46:45.963Z,7.43
2022-11-04T23:49:33.358Z,7.80
2022-11-04T23:52:21.222Z,7.80
2022-11-04T23:55:09.122Z,6.80
2022-11-04T23:57:56.778Z,7.70
